Time;durP1;ratioP1;P1;durP2;ratioP2;P2;SDS_P1;SDS_P2;PMS_P1;PMS_P2;Temp;Humidity;BMP_temperature;BMP_pressure;BME280_temperature;BME280_humidity;BME280_pressure;Samples;Min_cycle;Max_cycle;Signal;HPM_P1;HPM_P2
2022/06/30 00:01:53;;;;;;;2.87;2.67;;;22.70;99.90;;;22.83;54.69;100744.53;4831118;28;97636;-70
2022/06/30 00:04:20;;;;;;;2.70;2.50;;;22.60;99.90;;;22.84;54.16;100740.84;4827689;28;97368;-71
2022/06/30 00:06:46;;;;;;;3.03;2.83;;;22.70;99.90;;;22.85;54.40;100735.34;4848151;28;97856;-70
2022/06/30 00:09:12;;;;;;;3.10;2.90;;;22.70;99.90;;;22.85;54.33;100739.88;4848490;28;100751;-70
2022/06/30 00:11:41;;;;;;;3.00;2.80;;;22.70;99.90;;;22.87;54.15;100745.13;4815182;28;98104;-70
2022/06/30 00:14:07;;;;;;;7.60;6.90;;;22.70;99.90;;;22.89;55.56;100745.84;4825580;28;103438;-70
2022/06/30 00:16:33;;;;;;;3.40;3.10;;;22.70;99.90;;;22.88;54.56;100739.63;4828816;28;97708;-70
2022/06/30 00:18:59;;;;;;;2.93;2.73;;;22.80;99.90;;;22.90;53.74;100742.19;4848921;28;97575;-70
2022/06/30 00:21:25;;;;;;;3.23;3.03;;;22.70;99.90;;;22.90;53.88;100736.81;4835310;28;97634;-70
2022/06/30 00:23:52;;;;;;;3.10;2.90;;;22.80;99.90;;;22.91;54.04;100730.44;4839684;28;98221;-70
2022/06/30 00:26:19;;;;;;;2.90;2.70;;;22.80;99.90;;;22.91;53.73;100725.06;4831148;28;97904;-70
2022/06/30 00:28:46;;;;;;;2.90;2.70;;;22.80;99.90;;;22.92;53.83;100724.06;4829444;28;99239;-70
2022/06/30 00:31:12;;;;;;;2.90;2.70;;;22.80;99.90;;;22.93;53.75;100725.78;4836030;28;99607;-71
2022/06/30 00:33:38;;;;;;;3.43;3.23;;;22.80;99.90;;;22.92;53.62;100724.91;4831988;28;98630;-70
2022/06/30 00:36:04;;;;;;;3.33;3.03;;;22.80;99.90;;;22.93;53.65;100720.38;4806902;28;97858;-70
2022/06/30 00:38:30;;;;;;;3.13;2.83;;;22.80;99.90;;;22.94;53.71;100722.09;4848086;28;97118;-69
2022/06/30 00:40:56;;;;;;;2.90;2.70;;;22.80;99.90;;;22.93;53.71;100717.69;4861268;28;96797;-70
2022/06/30 00:43:22;;;;;;;3.10;2.90;;;22.90;99.90;;;22.96;53.53;100722.81;4869853;28;97268;-70
2022/06/30 00:45:49;;;;;;;3.20;3.00;;;22.80;99.90;;;22.97;53.57;100717.28;4847164;28;97209;-69
2022/06/30 00:48:17;;;;;;;3.00;2.80;;;22.80;99.90;;;22.99;53.58;100709.09;4836602;28;98775;-70
2022/06/30 00:50:44;;;;;;;3.10;2.90;;;22.90;99.90;;;22.99;53.53;100714.47;4857591;28;100375;-69
2022/06/30 00:53:11;;;;;;;3.43;3.20;;;22.90;99.90;;;23.00;53.54;100708.09;4855520;28;97401;-70
2022/06/30 00:55:38;;;;;;;3.20;3.00;;;22.90;99.90;;;23.01;53.52;100707.16;4834531;28;97939;-69
2022/06/30 00:58:07;;;;;;;3.27;3.00;;;22.90;99.90;;;23.01;53.72;100701.75;4862567;28;99836;-70
2022/06/30 01:00:39;;;;;;;3.93;3.63;;;22.90;99.90;;;23.02;53.54;100711.53;4876518;28;96931;-70
2022/06/30 01:03:09;;;;;;;3.30;3.10;;;23.00;99.90;;;23.03;53.59;100706.03;4860532;28;96589;-70
2022/06/30 01:05:37;;;;;;;4.00;3.73;;;23.00;99.90;;;23.02;53.59;100704.31;4855863;28;96807;-70
2022/06/30 01:08:06;;;;;;;3.93;3.63;;;23.00;99.90;;;23.03;53.54;100700.63;4860901;28;98355;-70
2022/06/30 01:13:17;;;;;;;3.60;3.30;;;23.00;99.90;;;23.00;53.61;100692.84;4878446;28;97267;-73
2022/06/30 01:15:44;;;;;;;3.83;3.53;;;23.00;99.90;;;23.01;53.69;100701.75;4867174;28;97099;-70
2022/06/30 01:18:10;;;;;;;3.63;3.40;;;22.90;99.90;;;23.02;53.69;100695.41;4848055;28;97808;-70
2022/06/30 01:20:36;;;;;;;4.23;3.83;;;23.00;99.90;;;23.02;53.65;100703.47;4843670;28;97298;-70
2022/06/30 01:23:04;;;;;;;3.90;3.60;;;22.90;99.90;;;23.03;53.63;100694.41;4871289;28;96955;-70
2022/06/30 01:25:30;;;;;;;4.50;4.20;;;23.00;99.90;;;23.03;53.69;100699.78;4858165;28;97102;-70
2022/06/30 01:27:56;;;;;;;4.00;3.70;;;23.00;99.90;;;23.02;53.54;100698.09;4854800;28;99024;-70
2022/06/30 01:30:23;;;;;;;4.13;3.83;;;22.90;99.90;;;23.01;53.53;100701.75;4857553;28;96831;-70
2022/06/30 01:32:50;;;;;;;3.87;3.57;;;23.00;99.90;;;23.02;53.56;100698.09;4857857;28;96903;-70
2022/06/30 01:35:16;;;;;;;3.80;3.50;;;23.00;99.90;;;23.02;53.52;100698.09;4843638;28;97244;-70
2022/06/30 01:37:56;;;;;;;3.87;3.57;;;22.90;99.90;;;23.05;53.59;100697.81;4857694;28;104585;-69
2022/06/30 01:40:36;;;;;;;4.47;4.07;;;23.00;99.90;;;23.03;53.61;100689.88;4854418;28;98318;-70
2022/06/30 01:43:06;;;;;;;7.60;6.93;;;22.90;99.90;;;23.01;54.17;100696.38;4854678;28;97067;-70
2022/06/30 01:45:33;;;;;;;7.83;7.17;;;22.90;99.90;;;22.99;55.31;100695.63;4829024;28;99216;-70
2022/06/30 01:47:59;;;;;;;6.00;5.50;;;22.80;99.90;;;22.95;55.13;100696.91;4854372;28;98553;-70
2022/06/30 01:50:30;;;;;;;5.17;4.77;;;22.80;99.90;;;22.92;54.74;100697.19;4881975;28;97263;-69
2022/06/30 01:52:57;;;;;;;4.17;3.87;;;22.70;99.90;;;22.88;54.28;100695.75;4868940;28;97033;-70
2022/06/30 01:55:24;;;;;;;4.63;4.30;;;22.70;99.90;;;22.87;54.36;100702.09;4859660;28;96859;-70
2022/06/30 01:57:51;;;;;;;4.47;4.13;;;22.70;99.90;;;22.87;54.40;100694.03;4852608;28;97638;-70
2022/06/30 02:00:25;;;;;;;11.13;10.13;;;22.70;99.90;;;22.84;56.30;100698.69;4880175;28;96693;-73
2022/06/30 02:02:53;;;;;;;5.00;4.60;;;22.70;99.90;;;22.78;54.58;100691.13;4867023;28;96652;-70
2022/06/30 02:05:21;;;;;;;4.80;4.40;;;22.50;99.90;;;22.76;54.75;100693.09;4857733;28;97257;-72
2022/06/30 02:07:47;;;;;;;5.33;4.73;;;22.50;99.90;;;22.76;54.94;100689.56;4837892;28;100520;-70
2022/06/30 02:10:19;;;;;;;4.60;4.30;;;22.50;99.90;;;22.77;54.68;100693.94;4847553;28;97279;-70
2022/06/30 02:12:47;;;;;;;5.43;5.00;;;22.60;99.90;;;22.77;54.88;100699.31;4848022;28;97145;-70
2022/06/30 02:15:33;;;;;;;4.33;4.03;;;22.60;99.90;;;22.78;55.39;100704.56;4863046;28;98930;-70
2022/06/30 02:18:03;;;;;;;4.97;4.47;;;22.60;99.90;;;22.75;55.26;100694.06;4854138;28;102709;-70
2022/06/30 02:20:29;;;;;;;4.23;3.93;;;22.60;99.90;;;22.75;54.95;100706.66;4858286;28;97087;-70
2022/06/30 02:22:58;;;;;;;4.83;4.47;;;22.50;99.90;;;22.76;54.89;100711.91;4859966;28;97024;-70
2022/06/30 02:25:26;;;;;;;5.03;4.63;;;22.50;99.90;;;22.73;54.99;100717.56;4868487;28;97147;-70
2022/06/30 02:27:53;;;;;;;5.00;4.60;;;22.50;99.90;;;22.74;55.04;100711.19;4859494;28;97116;-70
2022/06/30 02:30:19;;;;;;;6.23;5.73;;;22.50;99.90;;;22.72;55.47;100718.53;4863153;28;97185;-70
2022/06/30 02:32:46;;;;;;;4.73;4.43;;;22.50;99.90;;;22.68;54.98;100722.47;4863590;28;97006;-69
2022/06/30 02:35:13;;;;;;;5.00;4.43;;;22.40;99.90;;;22.69;54.99;100729.53;4875121;28;96933;-69
2022/06/30 02:37:39;;;;;;;4.53;4.17;;;22.40;99.90;;;22.69;54.87;100732.22;4839639;28;98164;-70
2022/06/30 02:40:06;;;;;;;4.53;4.23;;;22.40;99.90;;;22.72;54.46;100729.28;4861469;28;97564;-70
2022/06/30 02:42:32;;;;;;;4.83;4.43;;;22.50;99.90;;;22.73;54.63;100725.63;4856766;28;97386;-69
2022/06/30 02:44:58;;;;;;;4.50;4.20;;;22.50;99.90;;;22.74;55.00;100727.31;4861563;28;97090;-69
2022/06/30 02:47:42;;;;;;;5.73;5.27;;;22.60;99.90;;;22.73;55.50;100725.63;4857165;28;98652;-71
2022/06/30 02:50:12;;;;;;;4.70;4.40;;;22.50;99.90;;;22.71;54.88;100727.59;4881958;23;99915;-70
2022/06/30 02:52:39;;;;;;;5.20;4.67;;;22.50;99.90;;;22.72;54.99;100729.28;4875081;28;97215;-70
2022/06/30 02:55:06;;;;;;;4.60;4.30;;;22.50;99.90;;;22.73;54.85;100725.63;4891789;28;97305;-70
2022/06/30 02:57:37;;;;;;;5.00;4.60;;;22.50;99.90;;;22.74;54.96;100727.31;4880390;28;98099;-70
2022/06/30 03:00:06;;;;;;;4.50;4.20;;;22.50;99.90;;;22.75;54.92;100729.03;4889724;28;97252;-69
2022/06/30 03:02:32;;;;;;;5.13;4.73;;;22.60;99.90;;;22.75;54.77;100720.13;4879425;28;97422;-69
2022/06/30 03:04:58;;;;;;;4.27;3.97;;;22.60;99.90;;;22.76;54.66;100719.97;4870017;28;99232;-69
2022/06/30 03:07:24;;;;;;;5.77;5.27;;;22.60;99.90;;;22.79;54.88;100714.31;4871317;28;98437;-70
2022/06/30 03:09:50;;;;;;;9.47;8.63;;;22.60;99.90;;;22.76;55.77;100722.66;4877989;28;97406;-69
2022/06/30 03:12:15;;;;;;;4.70;4.30;;;22.60;99.90;;;22.73;54.95;100719.41;4881751;28;96992;-69
2022/06/30 03:14:41;;;;;;;11.13;9.93;;;22.50;99.90;;;22.70;55.65;100725.84;4856505;28;97419;-70
2022/06/30 03:17:07;;;;;;;5.10;4.70;;;22.50;99.90;;;22.68;55.21;100719.75;4859779;28;97622;-69
2022/06/30 03:19:33;;;;;;;4.67;4.37;;;22.40;99.90;;;22.67;55.02;100710.00;4870441;28;97171;-70
2022/06/30 03:21:59;;;;;;;4.90;4.50;;;22.40;99.90;;;22.67;55.02;100718.06;4864620;28;97046;-69
2022/06/30 03:24:25;;;;;;;5.03;4.63;;;22.50;99.90;;;22.68;54.88;100722.47;4887913;28;96878;-69
2022/06/30 03:26:51;;;;;;;5.07;4.67;;;22.50;99.90;;;22.70;54.95;100720.47;4874991;28;96908;-70
2022/06/30 03:29:17;;;;;;;5.03;4.63;;;22.50;99.90;;;22.72;54.83;100718.53;4872558;28;98968;-74
2022/06/30 03:31:43;;;;;;;5.10;4.70;;;22.60;99.90;;;22.71;54.73;100716.84;4882687;28;96821;-70
2022/06/30 03:34:09;;;;;;;4.87;4.47;;;22.60;99.90;;;22.74;54.69;100723.78;4883131;28;97331;-70
2022/06/30 03:36:35;;;;;;;5.03;4.63;;;22.60;99.90;;;22.76;54.72;100722.66;4879000;28;97482;-69
2022/06/30 03:39:01;;;;;;;4.47;4.17;;;22.70;99.90;;;22.77;54.59;100715.44;4863329;28;97902;-70
2022/06/30 03:41:27;;;;;;;4.90;4.50;;;22.70;99.90;;;22.76;54.42;100714.59;4869087;28;97363;-70
2022/06/30 03:43:54;;;;;;;4.60;4.20;;;22.70;99.90;;;22.78;54.56;100715.31;4875636;28;97412;-70
2022/06/30 03:46:20;;;;;;;5.00;4.60;;;22.70;99.90;;;22.82;54.42;100713.22;4877383;28;98805;-70
2022/06/30 03:48:46;;;;;;;5.53;5.13;;;22.70;99.90;;;22.82;54.40;100713.22;4876126;28;97152;-70
2022/06/30 03:51:12;;;;;;;5.20;4.80;;;22.80;99.90;;;22.83;54.42;100710.41;4859235;28;100270;-69
2022/06/30 03:53:39;;;;;;;5.07;4.67;;;22.80;99.90;;;22.85;54.28;100708.44;4886515;28;97018;-70
2022/06/30 03:56:06;;;;;;;5.50;5.10;;;22.80;99.90;;;22.87;54.32;100699.41;4872470;28;97218;-70
2022/06/30 03:58:34;;;;;;;5.50;5.00;;;22.80;99.90;;;22.88;54.27;100703.81;4876450;28;97037;-69
2022/06/30 04:01:00;;;;;;;5.27;4.87;;;22.80;99.90;;;22.88;54.26;100695.75;4869568;28;97036;-70
2022/06/30 04:03:27;;;;;;;5.47;5.07;;;22.80;99.90;;;22.89;54.34;100692.06;4872154;28;96929;-69
2022/06/30 04:05:52;;;;;;;12.37;11.17;;;22.80;99.90;;;22.92;56.13;100703.41;4877335;28;96901;-69
2022/06/30 04:08:18;;;;;;;7.57;6.87;;;22.80;99.90;;;22.91;54.74;100696.31;4877245;28;98431;-71
2022/06/30 04:10:44;;;;;;;5.57;5.17;;;22.80;99.90;;;22.92;54.36;100705.25;4882329;28;97460;-70
2022/06/30 04:13:11;;;;;;;7.20;5.60;;;22.80;99.90;;;22.92;54.44;100698.03;4877871;28;97170;-70
2022/06/30 04:15:37;;;;;;;6.67;6.13;;;22.80;99.90;;;22.92;54.81;100686.41;4866916;28;97416;-69
2022/06/30 04:18:03;;;;;;;5.73;5.33;;;22.80;99.90;;;22.91;54.66;100692.78;4877989;28;97246;-69
2022/06/30 04:20:29;;;;;;;5.60;5.10;;;22.70;99.90;;;22.88;54.73;100701.13;4879822;28;97094;-69
2022/06/30 04:22:55;;;;;;;5.70;5.30;;;22.70;99.90;;;22.85;54.90;100703.06;4873016;28;97102;-70
2022/06/30 04:25:21;;;;;;;6.60;6.03;;;22.70;99.90;;;22.84;54.96;100698.69;4859697;28;97550;-70
2022/06/30 04:27:56;;;;;;;10.00;9.07;;;22.70;99.90;;;22.83;55.84;100705.03;4878894;28;97542;-70
2022/06/30 04:33:07;;;;;;;5.73;5.23;;;22.60;99.90;;;22.77;54.79;100704.69;4873308;28;97151;-70
2022/06/30 04:35:35;;;;;;;5.97;5.47;;;22.60;99.90;;;22.77;54.74;100710.94;4877411;28;97626;-70
2022/06/30 04:38:03;;;;;;;5.60;5.20;;;22.60;99.90;;;22.77;54.68;100700.16;4870877;28;97373;-70
2022/06/30 04:43:14;;;;;;;5.33;4.93;;;22.60;99.90;;;22.79;54.53;100692.81;4881527;28;96722;-70
2022/06/30 04:45:40;;;;;;;6.70;6.00;;;22.60;99.90;;;22.81;56.08;100690.84;4860865;28;98572;-70
2022/06/30 04:48:07;;;;;;;14.83;11.53;;;22.70;99.90;;;22.81;57.66;100680.09;4870078;28;97294;-70
2022/06/30 04:50:33;;;;;;;6.33;5.83;;;22.70;99.90;;;22.79;55.11;100683.91;4858079;28;96796;-70
2022/06/30 04:52:59;;;;;;;6.07;5.57;;;22.70;99.90;;;22.79;54.67;100687.44;4887899;28;97243;-70
2022/06/30 04:55:25;;;;;;;8.17;7.47;;;22.60;99.90;;;22.80;56.02;100674.84;4889900;28;97474;-70
2022/06/30 04:57:51;;;;;;;12.43;11.30;;;22.60;99.90;;;22.79;57.36;100684.75;4884059;28;97068;-70
2022/06/30 05:00:54;;;;;;;12.40;11.23;;;22.60;99.90;;;22.77;56.91;100678.66;4873752;28;96955;-70
2022/06/30 05:03:21;;;;;;;6.37;5.87;;;22.60;99.90;;;22.69;55.29;100675.75;4817958;28;97040;-71
2022/06/30 05:05:47;;;;;;;5.90;5.40;;;22.50;99.90;;;22.70;54.64;100677.47;4882177;28;97062;-71
2022/06/30 05:08:12;;;;;;;6.07;5.57;;;22.50;99.90;;;22.71;55.02;100673.81;4869663;28;98588;-70
2022/06/30 05:10:38;;;;;;;6.37;5.87;;;22.50;99.90;;;22.73;54.83;100677.22;4875926;28;96858;-70
2022/06/30 05:13:07;;;;;;;6.30;5.80;;;22.60;99.90;;;22.76;54.88;100676.09;4864186;28;97425;-70
2022/06/30 05:15:37;;;;;;;7.03;6.33;;;22.60;99.90;;;22.78;55.00;100677.66;4829854;28;97646;-70
2022/06/30 05:28:34;;;;;;;6.23;5.63;;;22.70;99.90;;;22.81;55.05;100663.97;4904305;28;97129;-70
2022/06/30 05:31:00;;;;;;;5.87;5.40;;;22.70;99.90;;;22.83;54.80;100672.78;4917085;28;96985;-70
2022/06/30 05:33:29;;;;;;;6.03;5.53;;;22.70;99.90;;;22.84;54.97;100668.25;4878519;28;97077;-70
2022/06/30 05:36:00;;;;;;;5.77;5.27;;;22.70;99.90;;;22.85;54.77;100670.78;4889558;28;97205;-71
2022/06/30 05:38:27;;;;;;;6.43;5.93;;;22.80;99.90;;;22.87;54.53;100673.38;4901600;28;99765;-71
2022/06/30 05:40:53;;;;;;;6.00;5.50;;;22.80;99.90;;;22.88;54.33;100675.09;4882444;28;97850;-71
2022/06/30 05:43:19;;;;;;;5.87;5.37;;;22.80;99.90;;;22.89;54.64;100673.25;4893170;28;97147;-71
2022/06/30 05:45:53;;;;;;;5.70;5.20;;;22.80;99.90;;;22.92;54.54;100664.91;4906102;28;97725;-70
2022/06/30 05:48:19;;;;;;;8.20;7.43;;;22.80;99.90;;;22.95;57.07;100664.63;4898356;28;97308;-72
2022/06/30 05:50:45;;;;;;;6.43;5.93;;;22.90;99.90;;;22.96;55.17;100661.81;4890888;28;97065;-70
2022/06/30 05:53:11;;;;;;;6.73;6.17;;;22.90;99.90;;;22.96;58.01;100663.63;4887471;28;97063;-71
2022/06/30 05:55:37;;;;;;;6.33;5.73;;;22.80;99.90;;;22.94;54.76;100662.91;4870512;28;99451;-70
2022/06/30 05:58:04;;;;;;;7.63;6.93;;;22.80;99.90;;;22.96;55.47;100658.25;4918453;28;97229;-70
2022/06/30 06:00:31;;;;;;;10.07;9.17;;;22.90;99.90;;;22.93;55.06;100661.22;4912490;28;97340;-71
2022/06/30 06:02:58;;;;;;;6.47;5.87;;;22.90;99.90;;;22.96;54.31;100658.25;4902232;28;97315;-70
2022/06/30 06:05:24;;;;;;;6.60;6.00;;;22.90;99.90;;;22.92;54.37;100659.53;4909037;28;98428;-70
2022/06/30 06:07:51;;;;;;;7.17;6.57;;;22.90;99.90;;;22.95;54.34;100664.63;4913976;28;96967;-70
2022/06/30 06:10:18;;;;;;;14.20;13.00;;;22.90;99.90;;;23.02;61.33;100668.50;4899408;28;97555;-71
2022/06/30 06:12:44;;;;;;;17.10;14.47;;;23.00;99.90;;;23.04;63.10;100674.59;4918071;28;96937;-70
2022/06/30 06:15:14;;;;;;;14.23;12.73;;;23.00;99.90;;;23.04;62.30;100677.28;4915617;28;97934;-70
2022/06/30 06:17:46;;;;;;;15.47;14.07;;;23.00;99.90;;;23.02;64.16;100677.41;4867887;28;97507;-70
2022/06/30 06:20:15;;;;;;;8.27;7.57;;;22.90;99.90;;;22.99;57.13;100679.50;4902977;28;97883;-70
2022/06/30 06:22:41;;;;;;;7.30;6.70;;;22.90;99.90;;;22.98;55.19;100675.09;4895904;28;97484;-70
2022/06/30 06:25:09;;;;;;;13.43;12.23;;;22.90;99.90;;;23.00;58.92;100678.50;4894397;28;97430;-70
2022/06/30 06:27:37;;;;;;;6.93;6.40;;;22.90;99.90;;;22.94;55.35;100676.38;4903740;28;97062;-70
2022/06/30 06:30:05;;;;;;;8.50;7.77;;;22.90;99.90;;;22.98;55.56;100688.56;4919920;28;96774;-70
2022/06/30 06:32:31;;;;;;;13.87;12.57;;;22.90;99.90;;;23.02;62.15;100682.78;4880108;28;96972;-70
2022/06/30 06:34:58;;;;;;;14.53;12.97;;;23.00;99.90;;;23.04;60.10;100688.03;4912115;28;98015;-70
2022/06/30 06:37:24;;;;;;;14.13;12.80;;;23.00;99.90;;;23.04;61.49;100691.59;4894648;28;97078;-73
2022/06/30 06:39:51;;;;;;;12.57;11.47;;;23.00;99.90;;;23.04;58.51;100688.03;4920600;28;96698;-70
2022/06/30 06:42:17;;;;;;;14.23;12.97;;;23.00;99.90;;;23.05;60.92;100685.22;4916714;28;97031;-70
2022/06/30 06:44:43;;;;;;;10.87;9.87;;;23.00;99.90;;;23.04;56.27;100685.34;4901815;28;100237;-70
2022/06/30 06:47:09;;;;;;;10.73;9.73;;;23.00;99.90;;;23.02;55.27;100674.72;4895152;28;98469;-70
2022/06/30 06:49:35;;;;;;;13.50;11.67;;;23.00;99.90;;;23.04;56.69;100674.59;4884338;28;96962;-71
2022/06/30 06:52:01;;;;;;;13.00;11.83;;;23.00;99.90;;;23.07;56.42;100677.84;4896462;28;96895;-70
2022/06/30 06:54:27;;;;;;;8.27;7.50;;;23.00;99.90;;;23.06;55.85;100664.53;4911859;28;97275;-71
2022/06/30 06:56:53;;;;;;;7.33;6.73;;;23.00;99.90;;;23.03;54.79;100673.75;4906435;28;97628;-71
2022/06/30 06:59:19;;;;;;;7.10;6.50;;;23.00;99.90;;;23.03;54.50;100671.06;4901800;28;96848;-73
2022/06/30 07:01:44;;;;;;;6.37;5.87;;;23.00;99.90;;;23.01;54.38;100670.34;4915663;28;97175;-71
2022/06/30 07:04:10;;;;;;;6.60;6.10;;;23.00;99.90;;;22.99;54.54;100672.28;4913969;28;97349;-71
2022/06/30 07:06:36;;;;;;;10.10;9.13;;;23.00;99.90;;;23.06;55.14;100672.63;4910636;28;97061;-71
2022/06/30 07:09:03;;;;;;;7.40;6.80;;;23.00;99.90;;;23.03;54.71;100678.28;4908970;28;97104;-70
2022/06/30 07:11:29;;;;;;;7.27;6.67;;;23.00;99.90;;;23.06;54.64;100678.00;4897797;28;97035;-70
2022/06/30 07:13:55;;;;;;;6.73;6.13;;;23.10;99.90;;;23.08;54.59;100676.88;4910245;28;97185;-70
2022/06/30 07:16:21;;;;;;;7.55;6.95;;;23.10;99.90;;;23.01;54.50;100680.25;4892114;28;97010;-71
2022/06/30 07:18:47;;;;;;;12.47;11.20;;;23.00;99.90;;;23.14;59.80;100680.84;4898513;28;97505;-70
2022/06/30 07:21:14;;;;;;;8.13;7.33;;;23.10;99.90;;;23.17;55.07;100682.44;4898419;28;99567;-70
2022/06/30 07:23:40;;;;;;;8.87;8.07;;;23.20;99.90;;;23.17;54.65;100691.38;4912930;28;99344;-70
2022/06/30 07:26:06;;;;;;;11.87;10.87;;;23.10;99.90;;;23.19;55.33;100685.84;4918153;28;98040;-70
2022/06/30 07:28:32;;;;;;;6.80;6.23;;;23.20;99.90;;;23.17;54.47;100685.97;4912909;28;97363;-70
2022/06/30 07:30:58;;;;;;;8.83;7.63;;;23.20;99.90;;;23.17;54.22;100691.38;4892207;28;98458;-70
2022/06/30 07:33:23;;;;;;;11.97;10.77;;;23.20;99.90;;;23.19;55.40;100697.47;4894081;28;98671;-70
2022/06/30 07:35:49;;;;;;;11.33;10.33;;;23.20;99.90;;;23.31;59.87;100704.47;4917872;28;96993;-70
2022/06/30 07:38:15;;;;;;;10.27;9.35;;;23.30;99.90;;;23.28;55.36;100710.09;4916662;28;97082;-70
2022/06/30 07:40:41;;;;;;;10.80;9.70;;;23.30;99.90;;;23.32;55.92;100711.53;4879741;28;97426;-70
2022/06/30 07:43:07;;;;;;;12.65;10.27;;;23.30;99.90;;;23.26;55.62;100714.75;4914622;28;97475;-70
2022/06/30 07:45:33;;;;;;;13.07;10.33;;;23.30;99.90;;;23.28;57.70;100710.09;4896822;28;98427;-69
2022/06/30 07:47:59;;;;;;;12.18;10.85;;;23.30;99.90;;;23.30;55.67;100705.44;4916229;28;96919;-70
2022/06/30 07:50:25;;;;;;;13.47;11.73;;;23.30;99.90;;;23.32;55.13;100711.53;4888501;28;97264;-71
2022/06/30 07:52:52;;;;;;;13.32;11.38;;;23.30;99.90;;;23.36;55.52;100707.59;4901911;28;100737;-70
2022/06/30 07:55:18;;;;;;;12.57;10.85;;;23.40;99.90;;;23.47;58.70;100708.47;4904425;28;96846;-72
2022/06/30 07:57:48;;;;;;;9.98;9.07;;;23.50;99.90;;;23.38;55.10;100704.75;4901367;28;97037;-70
2022/06/30 08:00:16;;;;;;;7.40;6.80;;;23.40;99.90;;;23.29;54.28;100703.75;4918126;28;96812;-71
2022/06/30 08:02:43;;;;;;;7.33;6.73;;;23.30;99.90;;;23.27;54.09;100707.53;4882497;28;100506;-71
2022/06/30 08:05:09;;;;;;;11.90;10.80;;;23.30;99.90;;;23.38;61.42;100713.69;4907390;28;97225;-70
2022/06/30 08:07:36;;;;;;;9.73;8.82;;;23.40;99.90;;;23.43;59.58;100708.75;4919905;28;97121;-71
2022/06/30 08:10:03;;;;;;;8.43;7.63;;;23.40;99.90;;;23.38;54.42;100710.97;4902551;28;97141;-70
2022/06/30 08:12:29;;;;;;;10.13;9.23;;;23.40;99.90;;;23.45;58.94;100708.63;4904351;28;99454;-70
2022/06/30 08:14:55;;;;;;;11.57;9.53;;;23.50;99.90;;;23.39;54.73;100710.00;4924627;28;97117;-70
2022/06/30 08:17:21;;;;;;;9.07;8.27;;;23.40;99.90;;;23.45;57.17;100720.25;4902231;28;96348;-71
2022/06/30 08:19:47;;;;;;;8.82;7.95;;;23.40;99.90;;;23.64;56.64;100715.94;4900636;28;96951;-71
2022/06/30 08:22:13;;;;;;;7.57;6.88;;;23.60;99.90;;;23.61;54.27;100716.22;4884550;28;97965;-71
2022/06/30 08:24:39;;;;;;;7.38;6.65;;;23.60;99.90;;;23.57;53.87;100714.72;4917951;28;96800;-71
2022/06/30 08:27:05;;;;;;;8.00;7.28;;;23.60;99.90;;;23.54;56.21;100715.00;4910089;28;96743;-71
2022/06/30 08:29:32;;;;;;;6.93;6.15;;;23.60;99.90;;;23.49;53.73;100707.34;4885008;28;96951;-71
2022/06/30 08:32:02;;;;;;;7.75;6.93;;;23.50;99.90;;;23.47;53.51;100703.09;4875805;28;99758;-71
2022/06/30 08:34:28;;;;;;;7.60;6.90;;;23.50;99.90;;;23.41;53.51;100705.31;4883873;28;97975;-71
2022/06/30 08:36:55;;;;;;;7.20;6.60;;;23.40;99.90;;;23.55;55.77;100705.94;4883202;28;97619;-70
2022/06/30 08:42:06;;;;;;;6.63;6.03;;;23.50;99.90;;;23.54;54.80;100705.09;4898634;28;97528;-71
2022/06/30 08:44:36;;;;;;;7.70;6.93;;;23.50;99.90;;;23.60;54.17;100701.06;4906846;28;97307;-70
2022/06/30 08:47:04;;;;;;;10.38;6.35;;;23.60;99.90;;;23.81;54.59;100696.41;4897417;28;97347;-70
2022/06/30 08:49:31;;;;;;;6.78;5.88;;;23.80;99.90;;;23.95;53.79;100692.47;4894713;28;97177;-70
2022/06/30 08:51:59;;;;;;;8.25;6.03;;;23.90;99.90;;;24.02;52.87;100693.63;4884317;28;97456;-70
2022/06/30 08:54:28;;;;;;;7.07;5.72;;;24.10;99.90;;;24.00;52.52;100692.88;4882946;28;96753;-71
2022/06/30 08:56:57;;;;;;;7.43;6.45;;;24.10;99.90;;;23.84;52.98;100696.13;4892167;28;97587;-71
2022/06/30 08:59:24;;;;;;;7.38;6.68;;;23.90;99.90;;;23.73;52.88;100698.97;4896331;28;97280;-71
2022/06/30 09:01:54;;;;;;;5.85;5.28;;;23.80;99.90;;;23.70;52.91;100701.91;4899995;28;99924;-71
2022/06/30 09:04:22;;;;;;;6.30;4.80;;;23.80;99.90;;;23.71;52.83;100706.28;4909446;28;97412;-71
2022/06/30 09:06:48;;;;;;;8.00;5.20;;;23.70;99.90;;;23.62;52.96;100696.38;4900789;28;98840;-71
2022/06/30 09:09:13;;;;;;;4.97;4.22;;;23.70;99.90;;;23.90;51.41;100694.72;4911757;28;97221;-70
2022/06/30 09:11:54;;;;;;;4.40;3.97;;;23.90;99.90;;;23.91;51.94;100689.19;4892719;28;97074;-70
2022/06/30 09:14:53;;;;;;;4.55;4.13;;;24.00;99.90;;;23.91;51.66;100685.66;4911235;28;97401;-70
2022/06/30 09:17:23;;;;;;;4.40;3.42;;;24.00;99.90;;;23.94;51.42;100680.84;4857584;28;97209;-72
2022/06/30 09:20:00;;;;;;;7.05;5.30;;;24.00;99.90;;;23.91;51.74;100686.50;4906375;28;97164;-71
2022/06/30 09:22:38;;;;;;;5.78;3.40;;;24.00;99.90;;;23.88;51.90;100681.41;4902838;28;97602;-70
2022/06/30 09:25:08;;;;;;;7.40;3.67;;;23.90;99.90;;;23.86;51.08;100683.38;4898859;28;99412;-70
2022/06/30 09:27:40;;;;;;;3.80;3.50;;;23.90;99.90;;;24.09;49.50;100683.13;4918490;28;96929;-70
2022/06/30 09:30:13;;;;;;;6.40;3.95;;;24.10;99.90;;;23.94;51.13;100686.22;4915392;28;97208;-70
2022/06/30 09:32:55;;;;;;;5.70;4.10;;;24.10;99.90;;;23.99;51.27;100681.25;4892857;28;98924;-70
2022/06/30 09:35:30;;;;;;;5.18;3.25;;;24.10;99.90;;;23.91;49.38;100678.44;4908694;28;96763;-70
2022/06/30 09:38:07;;;;;;;5.65;3.47;;;24.00;99.90;;;24.17;49.43;100669.81;4916437;28;97492;-70
2022/06/30 09:41:04;;;;;;;6.63;3.88;;;24.20;99.90;;;24.06;50.67;100675.31;4892695;28;96992;-71
2022/06/30 09:43:36;;;;;;;5.35;4.25;;;24.10;99.90;;;23.95;50.87;100677.16;4887517;28;97687;-71
2022/06/30 09:46:03;;;;;;;3.92;3.33;;;24.10;99.90;;;23.99;50.77;100673.19;4887388;28;99144;-70
2022/06/30 09:48:33;;;;;;;5.93;5.10;;;24.10;99.90;;;23.88;51.38;100673.31;4911655;28;96817;-71
2022/06/30 09:51:02;;;;;;;6.53;3.85;;;24.00;99.90;;;23.83;51.69;100664.78;4912215;28;97444;-70
2022/06/30 09:53:28;;;;;;;5.85;4.03;;;23.90;99.90;;;23.94;52.01;100664.69;4886264;28;97477;-71
2022/06/30 09:55:54;;;;;;;5.70;5.18;;;23.90;99.90;;;23.91;51.76;100666.81;4908219;28;97502;-71
2022/06/30 09:58:26;;;;;;;5.25;3.88;;;24.00;99.90;;;23.98;51.39;100663.41;4903087;28;96595;-71
2022/06/30 10:00:52;;;;;;;6.53;4.57;;;24.00;99.90;;;23.82;51.58;100660.41;4917555;28;97326;-70
2022/06/30 10:03:19;;;;;;;8.07;4.00;;;24.00;99.90;;;23.89;51.23;100660.72;4912762;28;103679;-73
2022/06/30 10:06:07;;;;;;;5.80;4.00;;;23.90;99.90;;;23.96;51.27;100662.69;4919520;28;98061;-70
2022/06/30 10:08:33;;;;;;;4.93;4.50;;;24.10;99.90;;;24.02;50.94;100662.13;4908770;28;97344;-71
2022/06/30 10:11:00;;;;;;;7.70;3.55;;;24.10;99.90;;;24.11;49.95;100664.97;4892735;28;100032;-70
2022/06/30 10:13:27;;;;;;;4.60;3.33;;;24.10;99.90;;;24.37;47.89;100658.03;4908331;28;97627;-70
2022/06/30 10:15:55;;;;;;;7.70;3.60;;;24.50;99.90;;;24.36;49.49;100653.66;4878624;28;100074;-71
2022/06/30 10:18:26;;;;;;;9.15;4.00;;;24.60;99.90;;;24.27;49.46;100655.31;4914729;28;97012;-72
2022/06/30 10:20:52;;;;;;;5.18;4.70;;;24.40;99.90;;;24.22;50.45;100659.44;4903956;28;96996;-70
2022/06/30 10:23:26;;;;;;;6.68;4.03;;;24.40;99.90;;;24.22;50.30;100646.81;4891240;28;97192;-70
2022/06/30 10:25:54;;;;;;;6.57;3.60;;;24.30;99.90;;;24.26;49.36;100652.75;4913514;28;101722;-71
2022/06/30 10:28:24;;;;;;;4.72;4.32;;;24.30;99.90;;;24.36;49.96;100642.88;4895145;28;97003;-74
2022/06/30 10:31:15;;;;;;;7.53;3.83;;;24.50;99.90;;;24.38;49.86;100646.25;4917548;28;97689;-70
2022/06/30 10:34:01;;;;;;;6.68;3.97;;;24.50;99.90;;;24.46;49.73;100641.00;4909974;28;97394;-71
2022/06/30 10:36:38;;;;;;;6.57;3.78;;;24.60;99.90;;;24.66;48.68;100636.41;4881217;28;98809;-71